Shaw Air Force Base
KSSC : now visible

Airfield :











YOU CAN JOIN US ON...

 
LOGIN :

Register | Disclaimer

   EN    FR    IT 

 









Legend :    VFR   Marginal VFR   IFR   Intensive IFR   Very Intensive IFR
Visi :
Ceiling :
>= 8 km
>= 3000ft
5 to 8 km
1000 to 3000 ft
1500m to 5 km
500 to 1000 ft
800 to 1500m
200 to 500 ft
< 800m
< 200 ft
Symbols :   Thunderstorms  Fog  Heavy snow  Heavy precipitations  Wind > 20 kt






- Airport Elevation : 241 ft


KSSC - Shaw Air Force Base

METAR N/A
TAF AMD TAF KSSC
Valid from the 26 at 19:00 until the 27 at 22:00 UTC


261942Z 2619/2722 22012KT 9999 BKN013 BKN080 OVC120 QNH2983INS
BECMG 2620/2621 22012G18KT 9999 VCSH SCT016 BKN080 BKN250 QNH2981INS
BECMG 2622/2623 20005KT 9999 NSW FEW030 SCT080 BKN250 QNH2985INS
BECMG 2709/2710 33006KT 9999 VCSH BKN030 OVC080 QNH2990INS
BECMG 2712/2713 01007KT 8000 -RA FEW009 OVC012 QNH2997INS
BECMG 2714/2715 04009KT 4800 -RA BR BKN005 OVC010 QNH2992INS
BECMG 2720/2721 07008KT 8000 -RA BR BKN007 OVC020 QNH2987INS TX22/2620Z TN12/2712Z
KZJX FIR / North America



MET'MAP, your aeronautical weather chart ! - Copyright ORBIFLY December 2007 - Disclaimer

ORBIFLY MET'MAP TEAM :

Programming & Development : Alexandra Zaïnal
Concept & original design : Baudouin d'Aumeries
Assistance for programming : Marc-Olivier Méhu
Technical & hardware support : Manuel Goepfert

Contact : metmap@orbifly.com




SOURCES & CREDITS :

   NOAA       Earth
Advisory